sensor_id;sensor_type;location;lat;lon;timestamp;pressure;altitude;pressure_sealevel;temperature;humidity
76374;BME280;65197;50.164;8.012;2023-04-06T00:00:45;95700.47;;;1.14;52.87
76374;BME280;65197;50.164;8.012;2023-04-06T00:03:11;95686.25;;;1.16;53.11
76374;BME280;65197;50.164;8.012;2023-04-06T00:05:36;95691.31;;;1.11;52.71
76374;BME280;65197;50.164;8.012;2023-04-06T00:08:02;95693.94;;;0.97;54.25
76374;BME280;65197;50.164;8.012;2023-04-06T00:10:27;95695.69;;;0.89;54.95
76374;BME280;65197;50.164;8.012;2023-04-06T00:12:53;95689.88;;;0.81;54.30
76374;BME280;65197;50.164;8.012;2023-04-06T00:15:19;95694.09;;;0.73;53.75
76374;BME280;65197;50.164;8.012;2023-04-06T00:17:45;95684.03;;;0.79;55.55
76374;BME280;65197;50.164;8.012;2023-04-06T00:20:10;95689.00;;;0.88;52.43
76374;BME280;65197;50.164;8.012;2023-04-06T00:22:36;95689.00;;;0.88;51.20
76374;BME280;65197;50.164;8.012;2023-04-06T00:25:01;95682.34;;;0.81;52.23
76374;BME280;65197;50.164;8.012;2023-04-06T00:27:26;95675.72;;;0.74;52.35
76374;BME280;65197;50.164;8.012;2023-04-06T00:29:52;95667.44;;;0.60;52.98
76374;BME280;65197;50.164;8.012;2023-04-06T00:32:17;95668.22;;;0.69;52.58
76374;BME280;65197;50.164;8.012;2023-04-06T00:34:43;95669.91;;;0.64;52.52
76374;BME280;65197;50.164;8.012;2023-04-06T00:37:08;95649.06;;;0.55;53.06
76374;BME280;65197;50.164;8.012;2023-04-06T00:39:33;95664.09;;;0.61;52.98
76374;BME280;65197;50.164;8.012;2023-04-06T00:41:59;95655.78;;;0.53;52.65
76374;BME280;65197;50.164;8.012;2023-04-06T00:44:25;95642.53;;;0.38;51.93
76374;BME280;65197;50.164;8.012;2023-04-06T00:46:51;95664.19;;;0.48;52.89
76374;BME280;65197;50.164;8.012;2023-04-06T00:49:18;95651.66;;;0.45;50.29
76374;BME280;65197;50.164;8.012;2023-04-06T00:51:43;95657.44;;;0.54;50.45
76374;BME280;65197;50.164;8.012;2023-04-06T00:54:09;95648.13;;;0.71;51.56
76374;BME280;65197;50.164;8.012;2023-04-06T00:56:35;95644.88;;;0.58;50.50
76374;BME280;65197;50.164;8.012;2023-04-06T00:59:00;95639.75;;;0.69;51.98
76374;BME280;65197;50.164;8.012;2023-04-06T01:01:26;95646.47;;;0.67;51.64
76374;BME280;65197;50.164;8.012;2023-04-06T01:03:51;95638.22;;;0.54;49.87
76374;BME280;65197;50.164;8.012;2023-04-06T01:06:16;95630.66;;;0.59;51.67
76374;BME280;65197;50.164;8.012;2023-04-06T01:08:42;95635.66;;;0.59;51.06
76374;BME280;65197;50.164;8.012;2023-04-06T01:11:08;95639.06;;;0.50;51.76
76374;BME280;65197;50.164;8.012;2023-04-06T01:13:33;95641.63;;;0.45;52.45
76374;BME280;65197;50.164;8.012;2023-04-06T01:15:58;95634.19;;;0.35;50.60
76374;BME280;65197;50.164;8.012;2023-04-06T01:18:28;95633.03;;;0.72;49.62
76374;BME280;65197;50.164;8.012;2023-04-06T01:20:54;95617.25;;;0.61;51.22
76374;BME280;65197;50.164;8.012;2023-04-06T01:23:19;95630.56;;;0.68;48.76
76374;BME280;65197;50.164;8.012;2023-04-06T01:25:45;95610.53;;;0.63;49.97
76374;BME280;65197;50.164;8.012;2023-04-06T01:28:10;95613.94;;;0.55;49.50
76374;BME280;65197;50.164;8.012;2023-04-06T01:30:35;95618.13;;;0.54;51.49
76374;BME280;65197;50.164;8.012;2023-04-06T01:33:01;95629.00;;;0.55;50.52
76374;BME280;65197;50.164;8.012;2023-04-06T01:35:27;95615.66;;;0.49;51.51
76374;BME280;65197;50.164;8.012;2023-04-06T01:37:53;95601.59;;;0.32;52.06
76374;BME280;65197;50.164;8.012;2023-04-06T01:40:18;95600.75;;;0.34;51.83
76374;BME280;65197;50.164;8.012;2023-04-06T01:42:44;95597.44;;;0.29;51.77
76374;BME280;65197;50.164;8.012;2023-04-06T01:45:09;95604.97;;;0.23;51.63
76374;BME280;65197;50.164;8.012;2023-04-06T01:47:35;95591.69;;;0.15;52.53
76374;BME280;65197;50.164;8.012;2023-04-06T01:50:00;95607.50;;;0.23;51.78
76374;BME280;65197;50.164;8.012;2023-04-06T01:52:27;95599.22;;;0.15;51.90
76374;BME280;65197;50.164;8.012;2023-04-06T01:54:53;95585.03;;;0.11;51.97
76374;BME280;65197;50.164;8.012;2023-04-06T01:57:18;95586.69;;;0.15;51.63
76374;BME280;65197;50.164;8.012;2023-04-06T01:59:43;95598.31;;;0.23;52.04
76374;BME280;65197;50.164;8.012;2023-04-06T02:02:09;95580.81;;;0.16;52.44
76374;BME280;65197;50.164;8.012;2023-04-06T02:04:34;95592.50;;;0.17;51.72
76374;BME280;65197;50.164;8.012;2023-04-06T02:07:00;95584.19;;;0.12;52.48
76374;BME280;65197;50.164;8.012;2023-04-06T02:09:25;95584.16;;;0.13;52.63
76374;BME280;65197;50.164;8.012;2023-04-06T02:11:51;95582.53;;;0.08;52.29
76374;BME280;65197;50.164;8.012;2023-04-06T02:14:16;95590.06;;;0.06;51.81
76374;BME280;65197;50.164;8.012;2023-04-06T02:16:41;95584.22;;;0.06;52.26
76374;BME280;65197;50.164;8.012;2023-04-06T02:19:07;95596.75;;;0.10;51.30
76374;BME280;65197;50.164;8.012;2023-04-06T02:21:32;95584.22;;;0.06;51.63
76374;BME280;65197;50.164;8.012;2023-04-06T02:23:57;95584.19;;;0.12;50.08
76374;BME280;65197;50.164;8.012;2023-04-06T02:26:23;95585.81;;;0.16;49.65
76374;BME280;65197;50.164;8.012;2023-04-06T02:28:48;95589.75;;;0.46;47.72
76374;BME280;65197;50.164;8.012;2023-04-06T02:31:14;95568.72;;;0.65;46.88
76374;BME280;65197;50.164;8.012;2023-04-06T02:33:40;95571.91;;;0.81;46.72
76374;BME280;65197;50.164;8.012;2023-04-06T02:36:06;95572.81;;;0.74;47.20
76374;BME280;65197;50.164;8.012;2023-04-06T02:38:31;95567.03;;;0.66;46.67
76374;BME280;65197;50.164;8.012;2023-04-06T02:40:57;95566.91;;;0.78;47.23
76374;BME280;65197;50.164;8.012;2023-04-06T02:43:22;95555.25;;;0.74;46.29
76374;BME280;65197;50.164;8.012;2023-04-06T02:45:47;95581.06;;;0.88;46.24
76374;BME280;65197;50.164;8.012;2023-04-06T02:48:13;95576.75;;;0.99;46.04
76374;BME280;65197;50.164;8.012;2023-04-06T02:50:39;95573.31;;;1.05;46.41
76374;BME280;65197;50.164;8.012;2023-04-06T02:53:04;95564.16;;;1.01;45.87
76374;BME280;65197;50.164;8.012;2023-04-06T02:55:29;95556.69;;;0.96;45.99
76374;BME280;65197;50.164;8.012;2023-04-06T02:57:55;95572.53;;;1.01;46.27
76374;BME280;65197;50.164;8.012;2023-04-06T03:00:20;95562.63;;;0.89;46.07
76374;BME280;65197;50.164;8.012;2023-04-06T03:02:46;95560.88;;;0.94;45.87
76374;BME280;65197;50.164;8.012;2023-04-06T03:05:14;95558.41;;;0.91;45.89
76374;BME280;65197;50.164;8.012;2023-04-06T03:07:40;95563.41;;;0.91;45.59
76374;BME280;65197;50.164;8.012;2023-04-06T03:10:05;95561.66;;;1.02;45.73
76374;BME280;65197;50.164;8.012;2023-04-06T03:12:31;95563.31;;;1.04;45.37
76374;BME280;65197;50.164;8.012;2023-04-06T03:14:56;95554.16;;;0.98;45.42
76374;BME280;65197;50.164;8.012;2023-04-06T03:17:22;95530.03;;;0.83;44.80
76374;BME280;65197;50.164;8.012;2023-04-06T03:19:47;95555.84;;;0.96;45.29
76374;BME280;65197;50.164;8.012;2023-04-06T03:22:12;95573.44;;;0.97;45.22
76374;BME280;65197;50.164;8.012;2023-04-06T03:24:38;95563.31;;;1.00;45.44
76374;BME280;65197;50.164;8.012;2023-04-06T03:27:03;95564.22;;;0.95;44.58
76374;BME280;65197;50.164;8.012;2023-04-06T03:29:29;95542.56;;;0.83;45.30
76374;BME280;65197;50.164;8.012;2023-04-06T03:31:55;95563.47;;;0.88;45.61
76374;BME280;65197;50.164;8.012;2023-04-06T03:34:20;95554.31;;;0.83;45.59
76374;BME280;65197;50.164;8.012;2023-04-06T03:36:45;95554.34;;;0.80;45.53
76374;BME280;65197;50.164;8.012;2023-04-06T03:39:12;95558.59;;;0.73;46.99
76374;BME280;65197;50.164;8.012;2023-04-06T03:41:37;95560.25;;;0.72;45.94
76374;BME280;65197;50.164;8.012;2023-04-06T03:44:02;95560.22;;;0.77;45.96
76374;BME280;65197;50.164;8.012;2023-04-06T03:46:28;95555.28;;;0.71;45.94
76374;BME280;65197;50.164;8.012;2023-04-06T03:48:53;95560.28;;;0.71;46.93
76374;BME280;65197;50.164;8.012;2023-04-06T03:51:18;95572.03;;;0.64;47.32
76374;BME280;65197;50.164;8.012;2023-04-06T03:53:45;95559.53;;;0.63;46.79
76374;BME280;65197;50.164;8.012;2023-04-06T03:56:10;95560.38;;;0.62;47.70
76374;BME280;65197;50.164;8.012;2023-04-06T03:58:36;95565.41;;;0.59;46.99
76374;BME280;65197;50.164;8.012;2023-04-06T04:01:01;95575.50;;;0.53;48.68
76374;BME280;65197;50.164;8.012;2023-04-06T04:03:27;95574.75;;;0.41;49.06
76374;BME280;65197;50.164;8.012;2023-04-06T04:05:53;95572.31;;;0.35;48.93
76374;BME280;65197;50.164;8.012;2023-04-06T04:08:18;95579.81;;;0.38;49.58
76374;BME280;65197;50.164;8.012;2023-04-06T04:10:44;95576.50;;;0.33;49.74
76374;BME280;65197;50.164;8.012;2023-04-06T04:13:09;95564.06;;;0.18;50.27
76374;BME280;65197;50.164;8.012;2023-04-06T04:15:35;95579.09;;;0.21;50.42
76374;BME280;65197;50.164;8.012;2023-04-06T04:18:00;95564.13;;;0.15;50.95
76374;BME280;65197;50.164;8.012;2023-04-06T04:20:26;95571.69;;;0.07;52.06
76374;BME280;65197;50.164;8.012;2023-04-06T04:22:51;95575.09;;;-0.03;53.69
76374;BME280;65197;50.164;8.012;2023-04-06T04:25:17;95558.50;;;-0.22;53.00
76374;BME280;65197;50.164;8.012;2023-04-06T04:27:43;95576.84;;;-0.20;53.92
76374;BME280;65197;50.164;8.012;2023-04-06T04:30:08;95575.25;;;-0.31;54.93
76374;BME280;65197;50.164;8.012;2023-04-06T04:32:34;95577.81;;;-0.40;55.50
76374;BME280;65197;50.164;8.012;2023-04-06T04:34:59;95560.31;;;-0.52;55.39
76374;BME280;65197;50.164;8.012;2023-04-06T04:37:25;95587.81;;;-0.35;54.92
76374;BME280;65197;50.164;8.012;2023-04-06T04:39:50;95586.16;;;-0.36;53.58
76374;BME280;65197;50.164;8.012;2023-04-06T04:42:16;95577.81;;;-0.41;53.94
76374;BME280;65197;50.164;8.012;2023-04-06T04:44:41;95572.81;;;-0.41;54.33
76374;BME280;65197;50.164;8.012;2023-04-06T04:47:08;95589.47;;;-0.37;54.00
76374;BME280;65197;50.164;8.012;2023-04-06T04:49:33;95574.44;;;-0.34;53.58
76374;BME280;65197;50.164;8.012;2023-04-06T04:51:58;95576.91;;;-0.30;55.21
76374;BME280;65197;50.164;8.012;2023-04-06T04:54:24;95586.91;;;-0.28;53.95
76374;BME280;65197;50.164;8.012;2023-04-06T04:56:49;95584.44;;;-0.34;55.12
76374;BME280;65197;50.164;8.012;2023-04-06T04:59:15;95586.09;;;-0.30;54.87
76374;BME280;65197;50.164;8.012;2023-04-06T05:01:41;95582.78;;;-0.35;54.37
76374;BME280;65197;50.164;8.012;2023-04-06T05:04:06;95581.03;;;-0.21;53.32
76374;BME280;65197;50.164;8.012;2023-04-06T05:06:32;95595.16;;;-0.05;53.26
76374;BME280;65197;50.164;8.012;2023-04-06T05:08:57;95585.97;;;-0.06;52.80
76374;BME280;65197;50.164;8.012;2023-04-06T05:11:23;95585.06;;;0.05;53.19
76374;BME280;65197;50.164;8.012;2023-04-06T05:13:48;95586.66;;;0.19;53.39
76374;BME280;65197;50.164;8.012;2023-04-06T05:16:13;95579.84;;;0.31;53.11
76374;BME280;65197;50.164;8.012;2023-04-06T05:18:39;95593.03;;;0.57;52.15
76374;BME280;65197;50.164;8.012;2023-04-06T05:21:04;95590.34;;;0.77;51.54
76374;BME280;65197;50.164;8.012;2023-04-06T05:23:30;95588.50;;;0.97;50.45
76374;BME280;65197;50.164;8.012;2023-04-06T05:25:55;95598.38;;;1.13;50.34
76374;BME280;65197;50.164;8.012;2023-04-06T05:28:21;95578.97;;;1.24;49.71
76374;BME280;65197;50.164;8.012;2023-04-06T05:30:46;95579.41;;;1.60;48.08
76374;BME280;65197;50.164;8.012;2023-04-06T05:33:12;95574.91;;;1.83;48.49
76374;BME280;65197;50.164;8.012;2023-04-06T05:35:37;95585.31;;;2.19;48.33
76374;BME280;65197;50.164;8.012;2023-04-06T05:38:03;95579.88;;;2.43;46.37
76374;BME280;65197;50.164;8.012;2023-04-06T05:40:28;95586.13;;;2.72;46.17
76374;BME280;65197;50.164;8.012;2023-04-06T05:42:53;95577.31;;;2.97;44.56
76374;BME280;65197;50.164;8.012;2023-04-06T05:45:19;95564.22;;;2.77;44.89
76374;BME280;65197;50.164;8.012;2023-04-06T05:47:45;95575.53;;;3.02;44.84
76374;BME280;65197;50.164;8.012;2023-04-06T05:50:15;95589.19;;;3.36;44.73
76374;BME280;65197;50.164;8.012;2023-04-06T05:52:40;95589.84;;;3.45;44.43
76374;BME280;65197;50.164;8.012;2023-04-06T05:55:08;95590.00;;;3.79;44.19
76374;BME280;65197;50.164;8.012;2023-04-06T05:57:34;95580.22;;;4.04;42.78
76374;BME280;65197;50.164;8.012;2023-04-06T06:00:00;95580.97;;;4.08;42.55
76374;BME280;65197;50.164;8.012;2023-04-06T06:02:25;95573.16;;;4.19;42.56
76374;BME280;65197;50.164;8.012;2023-04-06T06:04:51;95589.41;;;4.44;42.57
76374;BME280;65197;50.164;8.012;2023-04-06T06:07:16;95574.09;;;4.50;42.84
76374;BME280;65197;50.164;8.012;2023-04-06T06:09:42;95594.19;;;4.89;42.75
76374;BME280;65197;50.164;8.012;2023-04-06T06:12:07;95583.47;;;4.81;42.15
76374;BME280;65197;50.164;8.012;2023-04-06T06:14:32;95584.75;;;4.97;42.95
76374;BME280;65197;50.164;8.012;2023-04-06T06:16:58;95586.75;;;5.17;42.00
76374;BME280;65197;50.164;8.012;2023-04-06T06:19:23;95555.44;;;5.23;41.78
76374;BME280;65197;50.164;8.012;2023-04-06T06:21:49;95584.53;;;5.38;41.91
76374;BME280;65197;50.164;8.012;2023-04-06T06:24:14;95578.66;;;5.67;41.51
76374;BME280;65197;50.164;8.012;2023-04-06T06:26:39;95581.50;;;5.85;41.44
76374;BME280;65197;50.164;8.012;2023-04-06T06:29:06;95556.25;;;5.84;40.66
76374;BME280;65197;50.164;8.012;2023-04-06T06:31:32;95566.75;;;6.00;41.34
76374;BME280;65197;50.164;8.012;2023-04-06T06:33:57;95574.66;;;5.89;41.60
76374;BME280;65197;50.164;8.012;2023-04-06T06:36:22;95572.13;;;5.89;41.53
76374;BME280;65197;50.164;8.012;2023-04-06T06:38:48;95577.03;;;6.23;41.72
76374;BME280;65197;50.164;8.012;2023-04-06T06:41:13;95578.84;;;6.46;40.19
76374;BME280;65197;50.164;8.012;2023-04-06T06:43:39;95580.78;;;6.10;41.25
76374;BME280;65197;50.164;8.012;2023-04-06T06:46:05;95574.53;;;6.50;40.67
76374;BME280;65197;50.164;8.012;2023-04-06T06:48:30;95579.81;;;6.69;41.73
76374;BME280;65197;50.164;8.012;2023-04-06T06:50:56;95585.69;;;6.44;41.46
76374;BME280;65197;50.164;8.012;2023-04-06T06:53:22;95558.50;;;6.49;40.90
76374;BME280;65197;50.164;8.012;2023-04-06T06:55:48;95564.63;;;6.69;41.10
76374;BME280;65197;50.164;8.012;2023-04-06T06:58:18;95582.34;;;6.95;41.08
76374;BME280;65197;50.164;8.012;2023-04-06T07:00:44;95571.47;;;7.42;39.81
76374;BME280;65197;50.164;8.012;2023-04-06T07:03:09;95568.66;;;7.26;41.09
76374;BME280;65197;50.164;8.012;2023-04-06T07:05:34;95583.81;;;7.74;40.14
76374;BME280;65197;50.164;8.012;2023-04-06T07:08:00;95590.53;;;7.77;39.15
76374;BME280;65197;50.164;8.012;2023-04-06T07:10:25;95586.59;;;7.68;39.53
76374;BME280;65197;50.164;8.012;2023-04-06T07:12:51;95582.44;;;7.89;41.15
76374;BME280;65197;50.164;8.012;2023-04-06T07:15:17;95581.50;;;7.91;38.99
76374;BME280;65197;50.164;8.012;2023-04-06T07:17:42;95581.16;;;8.23;39.53
76374;BME280;65197;50.164;8.012;2023-04-06T07:20:10;95575.09;;;8.27;39.31
76374;BME280;65197;50.164;8.012;2023-04-06T07:22:37;95575.25;;;8.22;39.60
76374;BME280;65197;50.164;8.012;2023-04-06T07:25:02;95571.50;;;8.54;39.31
76374;BME280;65197;50.164;8.012;2023-04-06T07:27:28;95577.97;;;8.83;39.31
76374;BME280;65197;50.164;8.012;2023-04-06T07:29:53;95587.63;;;8.96;37.96
76374;BME280;65197;50.164;8.012;2023-04-06T07:32:18;95571.16;;;9.45;38.09
76374;BME280;65197;50.164;8.012;2023-04-06T07:34:44;95576.97;;;9.67;39.11
76374;BME280;65197;50.164;8.012;2023-04-06T07:37:10;95582.34;;;9.61;38.56
76374;BME280;65197;50.164;8.012;2023-04-06T07:39:36;95583.03;;;10.03;37.39
76374;BME280;65197;50.164;8.012;2023-04-06T07:42:01;95570.22;;;10.04;37.48
76374;BME280;65197;50.164;8.012;2023-04-06T07:44:26;95560.59;;;9.92;36.10
76374;BME280;65197;50.164;8.012;2023-04-06T07:46:52;95571.69;;;9.91;37.36
76374;BME280;65197;50.164;8.012;2023-04-06T07:49:17;95572.63;;;10.07;36.45
76374;BME280;65197;50.164;8.012;2023-04-06T07:51:42;95566.72;;;10.26;36.72
76374;BME280;65197;50.164;8.012;2023-04-06T07:54:08;95577.84;;;10.23;36.17
76374;BME280;65197;50.164;8.012;2023-04-06T07:56:33;95577.69;;;10.28;36.58
76374;BME280;65197;50.164;8.012;2023-04-06T07:58:59;95584.81;;;10.38;37.28
76374;BME280;65197;50.164;8.012;2023-04-06T08:01:24;95583.63;;;10.82;35.29
76374;BME280;65197;50.164;8.012;2023-04-06T08:03:50;95581.75;;;10.68;35.86
76374;BME280;65197;50.164;8.012;2023-04-06T08:06:16;95562.69;;;10.20;35.41
76374;BME280;65197;50.164;8.012;2023-04-06T08:08:42;95565.13;;;10.42;36.79
76374;BME280;65197;50.164;8.012;2023-04-06T08:11:07;95580.53;;;10.39;36.72
76374;BME280;65197;50.164;8.012;2023-04-06T08:13:34;95573.31;;;10.66;36.22
76374;BME280;65197;50.164;8.012;2023-04-06T08:15:59;95586.19;;;10.45;37.12
76374;BME280;65197;50.164;8.012;2023-04-06T08:18:25;95578.47;;;11.01;36.37
76374;BME280;65197;50.164;8.012;2023-04-06T08:20:51;95578.06;;;11.59;36.84
76374;BME280;65197;50.164;8.012;2023-04-06T08:23:16;95581.59;;;11.06;37.05
76374;BME280;65197;50.164;8.012;2023-04-06T08:25:42;95569.22;;;10.98;37.27
76374;BME280;65197;50.164;8.012;2023-04-06T08:28:07;95591.59;;;10.93;36.39
76374;BME280;65197;50.164;8.012;2023-04-06T08:30:34;95585.28;;;10.83;36.90
76374;BME280;65197;50.164;8.012;2023-04-06T08:32:59;95590.16;;;10.87;38.06
76374;BME280;65197;50.164;8.012;2023-04-06T08:35:26;95583.63;;;11.67;36.72
76374;BME280;65197;50.164;8.012;2023-04-06T08:37:52;95584.03;;;12.40;34.51
76374;BME280;65197;50.164;8.012;2023-04-06T08:40:17;95586.34;;;12.13;34.96
76374;BME280;65197;50.164;8.012;2023-04-06T08:42:50;95578.78;;;11.28;38.11
76374;BME280;65197;50.164;8.012;2023-04-06T08:45:17;95590.13;;;11.22;37.53
76374;BME280;65197;50.164;8.012;2023-04-06T08:47:46;95602.06;;;11.39;37.75
76374;BME280;65197;50.164;8.012;2023-04-06T08:50:11;95589.94;;;10.92;37.13
76374;BME280;65197;50.164;8.012;2023-04-06T08:52:37;95584.91;;;10.73;37.44
76374;BME280;65197;50.164;8.012;2023-04-06T08:55:04;95581.97;;;10.27;39.29
76374;BME280;65197;50.164;8.012;2023-04-06T08:57:30;95594.28;;;11.42;37.38
76374;BME280;65197;50.164;8.012;2023-04-06T08:59:56;95598.84;;;11.18;37.61
76374;BME280;65197;50.164;8.012;2023-04-06T09:02:22;95583.69;;;10.98;38.93
76374;BME280;65197;50.164;8.012;2023-04-06T09:04:53;95585.25;;;11.35;37.74
76374;BME280;65197;50.164;8.012;2023-04-06T09:07:18;95569.69;;;11.39;37.80
76374;BME280;65197;50.164;8.012;2023-04-06T09:09:44;95586.13;;;10.47;36.57
76374;BME280;65197;50.164;8.012;2023-04-06T09:12:41;95586.84;;;10.68;36.90
76374;BME280;65197;50.164;8.012;2023-04-06T09:15:20;95571.91;;;11.12;37.24
76374;BME280;65197;50.164;8.012;2023-04-06T09:17:46;95591.63;;;11.94;36.70
76374;BME280;65197;50.164;8.012;2023-04-06T09:20:12;95570.72;;;11.53;38.08
76374;BME280;65197;50.164;8.012;2023-04-06T09:22:39;95590.84;;;11.92;36.28
76374;BME280;65197;50.164;8.012;2023-04-06T09:25:05;95594.97;;;11.61;37.43
76374;BME280;65197;50.164;8.012;2023-04-06T09:27:36;95577.84;;;11.63;38.73
76374;BME280;65197;50.164;8.012;2023-04-06T09:30:11;95586.41;;;12.43;37.61
76374;BME280;65197;50.164;8.012;2023-04-06T09:32:50;95591.78;;;12.54;35.94
76374;BME280;65197;50.164;8.012;2023-04-06T09:35:16;95578.16;;;12.38;35.67
76374;BME280;65197;50.164;8.012;2023-04-06T09:37:46;95579.00;;;11.73;37.22
76374;BME280;65197;50.164;8.012;2023-04-06T09:40:13;95579.25;;;11.69;36.57
76374;BME280;65197;50.164;8.012;2023-04-06T09:42:41;95562.91;;;12.36;36.70
76374;BME280;65197;50.164;8.012;2023-04-06T09:45:07;95579.09;;;12.21;38.01
76374;BME280;65197;50.164;8.012;2023-04-06T09:47:33;95563.75;;;12.05;37.50
76374;BME280;65197;50.164;8.012;2023-04-06T09:50:02;95575.59;;;12.38;37.37
76374;BME280;65197;50.164;8.012;2023-04-06T09:52:33;95574.97;;;12.03;37.12
76374;BME280;65197;50.164;8.012;2023-04-06T09:55:03;95586.44;;;11.28;37.50
76374;BME280;65197;50.164;8.012;2023-04-06T09:57:32;95585.53;;;11.46;37.11
76374;BME280;65197;50.164;8.012;2023-04-06T10:00:05;95586.78;;;10.87;39.11
76374;BME280;65197;50.164;8.012;2023-04-06T10:02:45;95591.44;;;10.42;40.83
76374;BME280;65197;50.164;8.012;2023-04-06T10:05:20;95584.13;;;10.35;40.23
76374;BME280;65197;50.164;8.012;2023-04-06T10:07:50;95570.44;;;10.18;39.79
76374;BME280;65197;50.164;8.012;2023-04-06T10:10:16;95577.03;;;10.23;39.87
76374;BME280;65197;50.164;8.012;2023-04-06T10:12:43;95578.63;;;9.87;40.55
76374;BME280;65197;50.164;8.012;2023-04-06T10:15:09;95576.84;;;9.89;42.02
76374;BME280;65197;50.164;8.012;2023-04-06T10:17:35;95576.84;;;10.08;41.60
76374;BME280;65197;50.164;8.012;2023-04-06T10:20:09;95576.03;;;10.27;40.66
76374;BME280;65197;50.164;8.012;2023-04-06T10:22:43;95583.03;;;10.22;39.65
76374;BME280;65197;50.164;8.012;2023-04-06T10:25:10;95587.50;;;10.16;40.60
76374;BME280;65197;50.164;8.012;2023-04-06T10:27:35;95586.84;;;9.94;41.17
76374;BME280;65197;50.164;8.012;2023-04-06T10:30:03;95575.75;;;9.95;39.94
76374;BME280;65197;50.164;8.012;2023-04-06T10:32:33;95584.00;;;10.19;40.65
76374;BME280;65197;50.164;8.012;2023-04-06T10:35:11;95580.34;;;10.25;43.04
76374;BME280;65197;50.164;8.012;2023-04-06T10:38:01;95583.22;;;9.79;40.17
76374;BME280;65197;50.164;8.012;2023-04-06T10:40:27;95582.38;;;9.21;42.85
76374;BME280;65197;50.164;8.012;2023-04-06T10:42:54;95575.75;;;9.16;42.97
76374;BME280;65197;50.164;8.012;2023-04-06T10:45:25;95584.19;;;9.37;42.22
76374;BME280;65197;50.164;8.012;2023-04-06T10:47:54;95573.91;;;9.59;42.45
76374;BME280;65197;50.164;8.012;2023-04-06T10:50:21;95583.16;;;9.62;43.25
76374;BME280;65197;50.164;8.012;2023-04-06T10:52:47;95582.34;;;9.61;41.60
76374;BME280;65197;50.164;8.012;2023-04-06T10:55:17;95575.72;;;9.57;42.02
76374;BME280;65197;50.164;8.012;2023-04-06T10:57:46;95574.94;;;9.55;42.02
76374;BME280;65197;50.164;8.012;2023-04-06T11:00:11;95573.66;;;9.65;41.14
76374;BME280;65197;50.164;8.012;2023-04-06T11:02:37;95577.38;;;9.58;43.38
76374;BME280;65197;50.164;8.012;2023-04-06T11:05:03;95581.16;;;10.06;41.75
76374;BME280;65197;50.164;8.012;2023-04-06T11:07:28;95574.75;;;10.54;43.00
76374;BME280;65197;50.164;8.012;2023-04-06T11:09:56;95574.97;;;9.93;43.02
76374;BME280;65197;50.164;8.012;2023-04-06T11:12:27;95570.25;;;10.59;41.93
76374;BME280;65197;50.164;8.012;2023-04-06T11:14:57;95567.19;;;10.87;38.63
76374;BME280;65197;50.164;8.012;2023-04-06T11:17:33;95549.41;;;10.68;39.77
76374;BME280;65197;50.164;8.012;2023-04-06T11:19:59;95560.34;;;11.22;39.08
76374;BME280;65197;50.164;8.012;2023-04-06T11:22:25;95562.59;;;11.29;39.20
76374;BME280;65197;50.164;8.012;2023-04-06T11:24:51;95562.81;;;10.72;37.55
76374;BME280;65197;50.164;8.012;2023-04-06T11:27:18;95550.00;;;10.74;40.08
76374;BME280;65197;50.164;8.012;2023-04-06T11:29:44;95569.78;;;10.51;40.26
76374;BME280;65197;50.164;8.012;2023-04-06T11:32:20;95548.44;;;10.35;40.95
76374;BME280;65197;50.164;8.012;2023-04-06T11:34:46;95554.22;;;10.19;40.92
76374;BME280;65197;50.164;8.012;2023-04-06T11:37:12;95549.44;;;10.32;42.34
76374;BME280;65197;50.164;8.012;2023-04-06T11:39:48;95550.72;;;10.58;40.69
76374;BME280;65197;50.164;8.012;2023-04-06T11:42:24;95559.31;;;10.75;39.51
76374;BME280;65197;50.164;8.012;2023-04-06T11:44:57;95525.25;;;10.76;39.40
76374;BME280;65197;50.164;8.012;2023-04-06T11:47:30;95534.53;;;11.11;40.97
76374;BME280;65197;50.164;8.012;2023-04-06T11:50:04;95543.72;;;10.63;39.17
76374;BME280;65197;50.164;8.012;2023-04-06T11:52:30;95534.97;;;10.67;40.10
76374;BME280;65197;50.164;8.012;2023-04-06T11:54:56;95534.97;;;10.67;38.99
76374;BME280;65197;50.164;8.012;2023-04-06T11:57:22;95536.91;;;10.28;40.43
76374;BME280;65197;50.164;8.012;2023-04-06T11:59:50;95541.31;;;10.05;41.50
76374;BME280;65197;50.164;8.012;2023-04-06T12:02:16;95531.94;;;9.87;39.69
76374;BME280;65197;50.164;8.012;2023-04-06T12:04:42;95530.84;;;9.92;41.69
76374;BME280;65197;50.164;8.012;2023-04-06T12:07:08;95534.63;;;10.22;42.85
76374;BME280;65197;50.164;8.012;2023-04-06T12:09:33;95534.09;;;10.51;42.16
76374;BME280;65197;50.164;8.012;2023-04-06T12:12:00;95530.25;;;10.24;40.40
76374;BME280;65197;50.164;8.012;2023-04-06T12:14:26;95524.19;;;10.45;41.83
76374;BME280;65197;50.164;8.012;2023-04-06T12:16:51;95525.66;;;10.49;40.59
76374;BME280;65197;50.164;8.012;2023-04-06T12:19:17;95520.28;;;10.38;41.33
76374;BME280;65197;50.164;8.012;2023-04-06T12:21:42;95522.78;;;10.91;41.12
76374;BME280;65197;50.164;8.012;2023-04-06T12:24:08;95533.50;;;10.98;40.37
76374;BME280;65197;50.164;8.012;2023-04-06T12:26:33;95503.19;;;10.57;42.04
76374;BME280;65197;50.164;8.012;2023-04-06T12:28:59;95523.16;;;10.84;43.66
76374;BME280;65197;50.164;8.012;2023-04-06T12:31:31;95521.50;;;11.00;40.67
76374;BME280;65197;50.164;8.012;2023-04-06T12:33:57;95519.41;;;10.74;40.04
76374;BME280;65197;50.164;8.012;2023-04-06T12:36:22;95517.84;;;10.35;42.80
76374;BME280;65197;50.164;8.012;2023-04-06T12:38:48;95520.72;;;9.91;41.14
76374;BME280;65197;50.164;8.012;2023-04-06T12:41:14;95514.72;;;10.11;40.43
76374;BME280;65197;50.164;8.012;2023-04-06T12:43:41;95503.63;;;9.76;42.58
76374;BME280;65197;50.164;8.012;2023-04-06T12:46:06;95518.06;;;9.94;42.16
76374;BME280;65197;50.164;8.012;2023-04-06T12:48:32;95516.38;;;9.93;43.44
76374;BME280;65197;50.164;8.012;2023-04-06T12:50:58;95496.59;;;9.81;42.83
76374;BME280;65197;50.164;8.012;2023-04-06T12:53:24;95517.91;;;9.97;41.93
76374;BME280;65197;50.164;8.012;2023-04-06T12:55:50;95526.53;;;10.12;41.97
76374;BME280;65197;50.164;8.012;2023-04-06T12:58:17;95512.03;;;10.33;42.36
76374;BME280;65197;50.164;8.012;2023-04-06T13:00:42;95515.41;;;10.14;41.90
76374;BME280;65197;50.164;8.012;2023-04-06T13:03:07;95506.84;;;10.15;41.75